Latest Weather Observations for Yanco

IDN60801

Issued at 2:35 am EST Thursday 28 August 2014 (issued every 30 minutes, with the page automatically refreshed every 10 minutes)

About weather observations | Map of weather stations | Latest weather observations for NSW | Other Formats
Station Details ID: 074037 Name: YANCO AGRICULTURAL INSTITUTE Lat: -34.62 Lon: 146.43 Height: 164.0 m
Data from the previous 72 hours. | See also: Recent months at Yanco
Date/Time
EST
Temp
°C
App
Temp
°C
Dew
Point
Rel
Hum
%
Delta-T
°C
Wind Press
QNH
hPa
Press
MSL
hPa
Rain
since 9 am
mm
Dir
 
Spd
km/h
Gust
km/h
Spd
kts
Gust
kts
28/02:30am 8.3 5.3 4.1 75 1.8 ENE 9 13 5 7 - - -
28/02:00am 8.7 6.2 3.9 72 2.1 ENE 6 6 3 3 - - -
28/01:30am 9.5 6.2 4.3 70 2.3 ENE 11 15 6 8 - - -
28/01:00am 9.0 5.4 5.0 76 1.8 ENE 13 15 7 8 - - -
28/12:30am 8.4 4.9 5.5 82 1.3 E 13 15 7 8 - - -
28/12:00am 8.9 5.9 5.8 81 1.4 E 11 13 6 7 - - -
 
Date/Time
EST
Temp
°C
App
Temp
°C
Dew
Point
Rel
Hum
%
Delta-T
°C
Wind Press
QNH
hPa
Press
MSL
hPa
Rain
since 9 am
mm
Dir
 
Spd
km/h
Gust
km/h
Spd
kts
Gust
kts
27/11:30pm 9.7 6.4 6.4 80 1.5 E 13 15 7 8 - - -
27/11:00pm 10.2 7.3 6.5 78 1.7 E 11 13 6 7 - - -
27/10:30pm 10.4 7.1 6.5 77 1.8 E 13 13 7 7 - - -
27/10:00pm 10.7 7.9 6.8 77 1.9 E 11 13 6 7 - - -
27/09:30pm 10.9 8.2 7.2 78 1.8 E 11 11 6 6 - - -
27/09:00pm 11.0 8.6 7.1 77 1.9 E 9 9 5 5 - - 0.0
27/08:30pm 10.8 8.4 7.1 78 1.8 E 9 9 5 5 - - -
27/08:00pm 12.1 10.1 7.0 71 2.5 E 7 9 4 5 - - -
27/07:30pm 12.7 10.7 7.0 68 2.8 E 7 7 4 4 - - -
27/07:00pm 12.9 10.9 6.9 67 2.9 E 7 7 4 4 - - -
27/06:30pm 13.7 11.7 7.2 65 3.2 E 7 7 4 4 - - -
27/06:00pm 14.3 12.3 6.9 61 3.6 E 7 7 4 4 - - -
27/05:30pm 16.4 14.5 6.5 52 4.9 ESE 6 11 3 6 - - -
27/05:00pm 17.9 15.6 5.8 45 6.0 SE 7 11 4 6 - - -
27/04:30pm 18.7 16.5 6.2 44 6.2 ESE 7 13 4 7 - - -
27/04:00pm 18.2 15.6 6.1 45 6.0 SE 9 15 5 8 - - -
27/03:30pm 19.4 16.3 5.5 40 6.9 SSW 11 19 6 10 - - -
27/02:00pm 18.7 16.4 5.9 43 6.3 SE 7 15 4 8 - - 0.0
27/01:30pm 18.6 15.9 5.8 43 6.3 ESE 9 17 5 9 - - 0.0
27/01:00pm 18.3 15.6 5.8 44 6.2 ESE 9 20 5 11 - - 0.0
27/12:30pm 18.2 15.7 6.7 47 5.8 ESE 9 19 5 10 - - 0.0
27/12:00pm 17.8 14.8 6.0 46 5.8 E 11 20 6 11 - - 0.0
27/11:30am 17.2 13.4 5.8 47 5.6 E 15 22 8 12 - - 0.0
27/11:00am 16.5 11.8 6.1 50 5.1 E 20 26 11 14 - - 0.0
27/10:30am 16.1 11.3 5.7 50 5.0 E 20 28 11 15 - - 0.0
27/10:00am 15.5 10.8 5.1 50 5.0 E 19 26 10 14 - - 0.0
27/09:30am 14.8 11.6 6.9 59 3.9 E 13 20 7 11 - - 0.0
27/09:00am 12.8 10.0 7.0 68 2.8 E 11 13 6 7 - - 0.2
27/08:30am 11.6 9.7 7.7 77 1.9 E 7 11 4 6 - - 0.2
27/08:00am 10.1 8.4 7.5 84 1.3 E 6 9 3 5 - - 0.2
27/07:30am 7.3 6.4 6.2 93 0.5 CALM 0 0 0 0 - - 0.2
27/07:00am 6.6 4.6 6.2 97 0.2 SE 6 7 3 4 - - 0.2
27/06:30am 7.0 4.5 6.4 96 0.3 SE 9 11 5 6 - - 0.2
27/06:00am 6.6 4.3 5.9 95 0.3 SE 7 9 4 5 - - 0.2
27/05:30am 7.2 4.6 6.0 92 0.5 SE 9 13 5 7 - - 0.2
27/05:00am 7.4 4.8 6.0 91 0.6 ESE 9 13 5 7 - - 0.2
27/04:30am 7.3 4.7 6.1 92 0.5 SE 9 11 5 6 - - 0.2
27/04:00am 8.0 5.5 6.5 90 0.7 SE 9 13 5 7 - - 0.2
27/03:30am 8.3 5.9 6.8 90 0.7 E 9 11 5 6 - - 0.2
27/03:00am 7.8 5.7 6.6 92 0.6 E 7 9 4 5 - - 0.2
27/02:30am 8.1 6.5 6.2 88 0.9 E 4 6 2 3 - - 0.2
27/02:00am 9.5 7.5 6.9 84 1.2 E 7 9 4 5 - - 0.2
27/01:30am 9.9 7.9 7.0 82 1.4 ESE 7 9 4 5 - - 0.2
27/01:00am 10.8 8.1 7.3 79 1.7 ESE 11 17 6 9 - - 0.2
27/12:30am 11.0 8.3 7.3 78 1.8 E 11 15 6 8 - - 0.2
27/12:00am 12.0 8.2 7.5 74 2.2 E 17 22 9 12 - - 0.2
 
Date/Time
EST
Temp
°C
App
Temp
°C
Dew
Point
Rel
Hum
%
Delta-T
°C
Wind Press
QNH
hPa
Press
MSL
hPa
Rain
since 9 am
mm
Dir
 
Spd
km/h
Gust
km/h
Spd
kts
Gust
kts
26/11:30pm 12.1 9.1 7.8 75 2.1 E 13 19 7 10 - - 0.2
26/11:00pm 11.9 9.0 8.0 77 1.9 E 13 19 7 10 - - 0.2
26/10:30pm 11.3 8.8 8.0 80 1.6 E 11 15 6 8 - - 0.2
26/10:00pm 11.6 9.1 8.1 79 1.7 E 11 15 6 8 - - 0.2
26/09:30pm 12.4 9.5 8.3 76 2.0 E 13 20 7 11 - - 0.2
26/09:00pm 12.4 10.0 8.5 77 2.0 E 11 19 6 10 - - 0.2
26/08:30pm 12.8 10.4 8.5 75 2.2 ESE 11 17 6 9 - - 0.2
26/08:00pm 13.4 10.6 8.5 72 2.5 ESE 13 19 7 10 - - 0.2
26/07:30pm 13.5 11.5 8.8 73 2.4 ESE 9 15 5 8 - - 0.2
26/07:00pm 14.1 12.5 8.9 71 2.7 ESE 7 13 4 7 - - 0.2
26/06:30pm 15.0 12.6 8.7 66 3.2 ESE 11 19 6 10 - - 0.2
26/06:00pm 15.6 13.2 8.8 64 3.5 ESE 11 19 6 10 - - 0.2
26/05:30pm 16.4 13.7 8.9 61 3.9 ESE 13 20 7 11 - - 0.2
26/05:00pm 17.5 14.3 8.6 56 4.6 E 15 22 8 12 - - 0.2
26/04:30pm 17.0 12.7 7.9 55 4.6 ESE 20 32 11 17 - - 0.2
26/04:00pm 17.8 13.6 8.4 54 4.9 ESE 20 30 11 16 - - 0.2
26/03:30pm 17.8 13.6 8.1 53 5.0 E 20 35 11 19 - - 0.2
26/03:00pm 18.3 15.0 8.0 51 5.3 ESE 15 28 8 15 - - 0.2
26/02:30pm 18.8 14.7 8.5 51 5.4 ESE 20 32 11 17 - - 0.2
26/02:00pm 18.9 14.8 8.8 52 5.3 E 20 32 11 17 - - 0.2
26/01:30pm 18.4 13.9 8.4 52 5.2 ESE 22 35 12 19 - - 0.2
26/01:00pm 16.8 12.8 8.2 57 4.4 ESE 19 28 10 15 - - 0.2
26/12:30pm 17.6 14.1 8.7 56 4.6 ESE 17 26 9 14 - - 0.0
26/12:00pm 16.5 12.9 8.5 59 4.1 ESE 17 26 9 14 - - 0.0
26/11:30am 16.1 12.2 8.6 61 3.9 ESE 19 26 10 14 - - 0.0
26/11:00am 16.7 13.7 9.4 62 3.8 ESE 15 22 8 12 - - 0.0
26/10:30am 15.4 12.7 8.9 65 3.3 SE 13 17 7 9 - - 0.0
26/10:00am 14.3 12.0 9.1 71 2.7 SSE 11 19 6 10 - - 0.0
26/09:30am 12.1 10.3 9.3 83 1.4 SSE 9 11 5 6 - - 0.0
26/09:00am 10.2 7.3 8.3 88 0.9 SSE 13 19 7 10 - - 6.2
26/08:30am 8.6 6.1 8.0 96 0.3 S 11 15 6 8 - - 6.2
26/08:00am 7.8 5.4 7.1 95 0.3 S 9 13 5 7 - - 6.2
26/07:30am 6.9 4.4 6.6 98 0.1 SSE 9 13 5 7 - - 6.2
26/07:00am 6.0 3.4 5.9 99 0.0 SSE 9 13 5 7 - - 6.2
26/06:30am 6.1 3.1 6.0 99 0.0 SSE 11 13 6 7 - - 6.2
26/06:00am 6.1 3.5 6.0 99 0.0 SSE 9 11 5 6 - - 6.2
26/05:30am 6.2 3.6 6.1 99 0.0 SSE 9 11 5 6 - - 6.2
26/05:00am 6.2 3.6 6.1 99 0.0 SSE 9 13 5 7 - - 6.2
26/04:30am 6.7 3.4 6.6 99 0.0 SSE 13 15 7 8 - - 6.2
26/04:00am 6.2 3.2 6.1 99 0.0 SSE 11 13 6 7 - - 6.2
26/03:30am 6.0 3.0 5.9 99 0.0 SSE 11 15 6 8 - - 6.2
26/03:00am 6.8 3.9 6.7 99 0.0 SE 11 11 6 6 - - 6.2
26/02:30am 6.8 4.7 6.7 99 0.0 S 7 9 4 5 - - 6.2
26/02:00am 7.1 5.1 7.0 99 0.0 SSE 7 9 4 5 - - 6.2
26/01:30am 7.0 5.1 6.9 99 0.0 SE 6 7 3 4 - - 6.2
26/01:00am 7.3 5.3 7.2 99 0.0 ESE 7 9 4 5 - - 6.2
26/12:30am 7.3 5.5 7.2 99 0.0 SSE 6 7 3 4 - - 6.2
26/12:00am 7.5 5.8 7.4 99 0.0 S 6 7 3 4 - - 6.2
 
Date/Time
EST
Temp
°C
App
Temp
°C
Dew
Point
Rel
Hum
%
Delta-T
°C
Wind Press
QNH
hPa
Press
MSL
hPa
Rain
since 9 am
mm
Dir
 
Spd
km/h
Gust
km/h
Spd
kts
Gust
kts
25/11:30pm 7.8 5.9 7.7 99 0.0 S 7 9 4 5 - - 6.0
25/11:00pm 8.0 6.2 7.9 99 0.0 S 7 9 4 5 - - 6.0
25/10:30pm 7.8 5.9 7.7 99 0.0 S 7 9 4 5 - - 6.0
25/10:00pm 7.9 6.3 7.8 99 0.0 S 6 7 3 4 - - 6.0
25/09:30pm 7.7 6.4 7.6 99 0.0 SSE 4 6 2 3 - - 6.0
25/09:00pm 7.7 6.7 7.4 98 0.1 SSW 2 4 1 2 - - 6.0
25/08:30pm 8.3 7.0 7.5 95 0.4 WSW 4 7 2 4 - - 6.0
25/08:00pm 8.9 8.6 8.8 99 0.0 CALM 0 0 0 0 - - 6.0
25/07:30pm 9.2 9.0 9.1 99 0.0 CALM 0 0 0 0 - - 6.0
25/07:00pm 9.3 9.1 9.2 99 0.0 CALM 0 0 0 0 - - 6.0
25/06:30pm 9.7 8.9 9.6 99 0.1 NW 4 6 2 3 - - 6.0
25/06:00pm 9.9 9.1 9.6 98 0.2 NE 4 6 2 3 - - 5.2
25/05:30pm 9.8 8.6 9.5 98 0.2 ENE 6 7 3 4 - - 5.0
25/05:00pm 10.1 7.1 9.3 95 0.4 E 15 19 8 10 - - 2.0
25/04:30pm 11.6 7.9 9.5 87 1.1 E 19 26 10 14 - - 0.0
25/04:00pm 12.8 9.3 7.3 69 2.7 ESE 15 24 8 13 - - 0.0
25/03:30pm 15.1 11.3 5.9 54 4.4 SW 15 26 8 14 - - 0.0
25/03:00pm 15.6 11.5 6.3 54 4.5 SW 17 24 9 13 - - 0.0
25/02:30pm 15.2 11.9 6.5 56 4.3 W 13 17 7 9 - - 0.0
25/02:00pm 14.8 10.4 6.6 58 4.0 WSW 19 26 10 14 - - 0.0
25/01:30pm 15.5 12.0 5.4 51 4.8 SW 13 19 7 10 - - 0.0
25/01:00pm 16.4 13.1 6.2 51 5.0 W 13 22 7 12 - - 0.0
25/12:30pm 15.7 12.0 6.4 54 4.6 W 15 22 8 12 - - 0.0
25/12:00pm 14.8 11.7 7.4 61 3.7 SW 13 20 7 11 - - 0.0
25/11:30am 14.5 11.7 6.8 60 3.8 WSW 11 15 6 8 - - 0.0
25/11:00am 14.7 12.0 7.5 62 3.6 SW 11 17 6 9 - - 0.0
25/10:30am 13.4 11.1 7.4 67 3.0 SSW 9 15 5 8 - - 0.0
25/10:00am 12.5 10.3 6.3 66 3.0 SW 7 11 4 6 - - 0.0
25/09:30am 10.6 8.6 6.2 74 2.1 SW 6 9 3 5 - - 0.0
25/09:00am 7.8 5.5 4.7 81 1.4 WSW 6 7 3 4 - - 0.0
25/08:30am 6.8 4.8 4.6 86 1.0 WNW 4 6 2 3 - - 0.0
25/08:00am 5.4 3.3 4.1 91 0.6 W 4 6 2 3 - - 0.0
25/07:30am 4.3 1.2 3.4 94 0.4 N 9 13 5 7 - - 0.0
25/07:00am 4.2 1.7 3.6 96 0.3 NNW 6 6 3 3 - - 0.0
25/06:30am 3.7 1.4 2.7 93 0.4 NNW 4 6 2 3 - - 0.0
25/06:00am 4.1 1.5 3.1 93 0.4 N 6 6 3 3 - - 0.0
25/05:30am 4.3 1.7 3.1 92 0.5 N 6 6 3 3 - - 0.0
25/05:00am 4.6 2.4 3.3 91 0.5 N 4 6 2 3 - - 0.0
25/04:30am 4.9 2.3 3.4 90 0.6 N 6 6 3 3 - - 0.0
25/04:00am 5.2 3.0 3.5 89 0.7 N 4 6 2 3 - - 0.0
25/03:30am 5.6 3.5 3.8 88 0.8 N 4 6 2 3 - - 0.0
25/03:00am 6.0 3.9 4.0 87 0.9 N 4 6 2 3 - - 0.0

Other Formats:

Comma delimited format used in spreadsheet applications
http://www.bom.gov.au/fwo/IDN60801/IDN60801.95705.axf

JavaScript Object Notation format (JSON) in row-major order
http://www.bom.gov.au/fwo/IDN60801/IDN60801.95705.json